Time;durP1;ratioP1;P1;durP2;ratioP2;P2;SDS_P1;SDS_P2;PMS_P1;PMS_P2;Temp;Humidity;BMP_temperature;BMP_pressure;BME280_temperature;BME280_humidity;BME280_pressure;Samples;Min_cycle;Max_cycle;Signal;HPM_P1;HPM_P2
2024/04/06 00:01:27;;;;;;;;;;;;;;;;;;2209722;67;1280;-18
2024/04/06 00:03:58;;;;;;;;;;;;;;;;;;2209996;67;1696;-18
2024/04/06 00:06:31;;;;;;;;;;;;;;;;;;2209502;66;1339;-17
2024/04/06 00:09:02;;;;;;;;;;;;;;;;;;2209347;67;1288;-18
2024/04/06 00:11:32;;;;;;;;;;;;;;;;;;2207851;59;1293;-18
2024/04/06 00:14:03;;;;;;;;;;;;;;;;;;2209675;59;1529;-18
2024/04/06 00:16:36;;;;;;;;;;;;;;;;;;2209363;67;2331;-18
2024/04/06 00:19:06;;;;;;;;;;;;;;;;;;2209481;59;1570;-18
2024/04/06 00:21:37;;;;;;;;;;;;;;;;;;2209434;66;1253;-18
2024/04/06 00:24:07;;;;;;;;;;;;;;;;;;2212399;58;1260;-17
2024/04/06 00:26:38;;;;;;;;;;;;;;;;;;2209465;67;1375;-18
2024/04/06 00:29:08;;;;;;;;;;;;;;;;;;2209441;67;1300;-18
2024/04/06 00:31:38;;;;;;;;;;;;;;;;;;2209150;67;1618;-17
2024/04/06 00:34:09;;;;;;;;;;;;;;;;;;2209791;67;1796;-18
2024/04/06 00:36:39;;;;;;;;;;;;;;;;;;2211295;59;1996;-18
2024/04/06 00:39:09;;;;;;;;;;;;;;;;;;2209763;59;1613;-18
2024/04/06 00:41:40;;;;;;;;;;;;;;;;;;2209030;59;1293;-17
2024/04/06 00:44:10;;;;;;;;;;;;;;;;;;2209873;59;1274;-18
2024/04/06 00:46:40;;;;;;;;;;;;;;;;;;2210099;59;2249;-18
2024/04/06 00:49:11;;;;;;;;;;;;;;;;;;2209692;59;1286;-18
2024/04/06 00:51:41;;;;;;;;;;;;;;;;;;2208665;59;1585;-18
2024/04/06 00:54:12;;;;;;;;;;;;;;;;;;2209980;67;1655;-18
2024/04/06 00:56:42;;;;;;;;;;;;;;;;;;2209400;67;1935;-17
2024/04/06 00:59:12;;;;;;;;;;;;;;;;;;2209358;59;1432;-18
2024/04/06 01:01:46;;;;;;;;;;;;;;;;;;2208734;67;1339;-18
2024/04/06 01:04:16;;;;;;;;;;;;;;;;;;2209765;59;1164;-17
2024/04/06 01:06:46;;;;;;;;;;;;;;;;;;2208739;67;1790;-18
2024/04/06 01:09:17;;;;;;;;;;;;;;;;;;2210093;67;1479;-18
2024/04/06 01:11:47;;;;;;;;;;;;;;;;;;2209168;59;1593;-17
2024/04/06 01:14:18;;;;;;;;;;;;;;;;;;2210582;59;1288;-17
2024/04/06 01:16:48;;;;;;;;;;;;;;;;;;2211856;66;1950;-18
2024/04/06 01:19:19;;;;;;;;;;;;;;;;;;2209312;59;1771;-18
2024/04/06 01:21:49;;;;;;;;;;;;;;;;;;2209288;59;1570;-18
2024/04/06 01:24:23;;;;;;;;;;;;;;;;;;2206805;59;1401;-18
2024/04/06 01:26:53;;;;;;;;;;;;;;;;;;2208666;67;1371;-18
2024/04/06 01:29:25;;;;;;;;;;;;;;;;;;2204828;59;2694;-18
2024/04/06 01:31:56;;;;;;;;;;;;;;;;;;2209052;67;1302;-18
2024/04/06 01:34:26;;;;;;;;;;;;;;;;;;2209803;59;1541;-18
2024/04/06 01:36:56;;;;;;;;;;;;;;;;;;2208813;59;1949;-18
2024/04/06 01:39:27;;;;;;;;;;;;;;;;;;2209987;59;1697;-18
2024/04/06 01:41:57;;;;;;;;;;;;;;;;;;2208981;59;1933;-18
2024/04/06 01:44:27;;;;;;;;;;;;;;;;;;2209373;59;1367;-18
2024/04/06 01:46:58;;;;;;;;;;;;;;;;;;2205814;59;1598;-18
2024/04/06 01:49:28;;;;;;;;;;;;;;;;;;2209388;59;1714;-18
2024/04/06 01:51:58;;;;;;;;;;;;;;;;;;2208570;67;1650;-18
2024/04/06 01:54:29;;;;;;;;;;;;;;;;;;2208504;59;2056;-18
2024/04/06 01:56:59;;;;;;;;;;;;;;;;;;2209134;59;1982;-18
2024/04/06 01:59:33;;;;;;;;;;;;;;;;;;2209026;59;1594;-18
2024/04/06 02:02:04;;;;;;;;;;;;;;;;;;2211263;58;1648;-18
2024/04/06 02:04:34;;;;;;;;;;;;;;;;;;2209365;59;1988;-18
2024/04/06 02:07:05;;;;;;;;;;;;;;;;;;2211118;58;1506;-18
2024/04/06 02:09:35;;;;;;;;;;;;;;;;;;2210072;59;1621;-18
2024/04/06 02:12:05;;;;;;;;;;;;;;;;;;2207773;59;1703;-18
2024/04/06 02:14:36;;;;;;;;;;;;;;;;;;2209929;59;1631;-18
2024/04/06 02:17:06;;;;;;;;;;;;;;;;;;2208082;59;1938;-18
2024/04/06 02:19:40;;;;;;;;;;;;;;;;;;2209340;59;1572;-18
2024/04/06 02:22:10;;;;;;;;;;;;;;;;;;2208862;59;1737;-18
2024/04/06 02:24:40;;;;;;;;;;;;;;;;;;2209352;59;1723;-18
2024/04/06 02:27:11;;;;;;;;;;;;;;;;;;2209860;59;1530;-17
2024/04/06 02:29:41;;;;;;;;;;;;;;;;;;2208660;59;1526;-17
2024/04/06 02:32:11;;;;;;;;;;;;;;;;;;2210051;59;1698;-18
2024/04/06 02:34:42;;;;;;;;;;;;;;;;;;2209265;59;1557;-17
2024/04/06 02:37:12;;;;;;;;;;;;;;;;;;2206074;59;2570;-18
2024/04/06 02:39:42;;;;;;;;;;;;;;;;;;2209195;59;2032;-17
2024/04/06 02:42:13;;;;;;;;;;;;;;;;;;2209337;59;1917;-18
2024/04/06 02:44:43;;;;;;;;;;;;;;;;;;2209843;59;1677;-18
2024/04/06 02:47:14;;;;;;;;;;;;;;;;;;2210013;59;1779;-18
2024/04/06 02:49:45;;;;;;;;;;;;;;;;;;2208731;59;1776;-17
2024/04/06 02:52:15;;;;;;;;;;;;;;;;;;2210125;59;1960;-18
2024/04/06 02:54:45;;;;;;;;;;;;;;;;;;2208796;59;1712;-18
2024/04/06 02:57:16;;;;;;;;;;;;;;;;;;2208915;59;2024;-18
2024/04/06 02:59:47;;;;;;;;;;;;;;;;;;2209135;59;1694;-18
2024/04/06 03:02:17;;;;;;;;;;;;;;;;;;2209117;59;1685;-18
2024/04/06 03:04:48;;;;;;;;;;;;;;;;;;2208949;59;1636;-18
2024/04/06 03:07:18;;;;;;;;;;;;;;;;;;2209582;59;1708;-18
2024/04/06 03:09:49;;;;;;;;;;;;;;;;;;2209879;59;2051;-17
2024/04/06 03:12:19;;;;;;;;;;;;;;;;;;2210726;59;1514;-18
2024/04/06 03:14:49;;;;;;;;;;;;;;;;;;2208668;59;1855;-18
2024/04/06 03:17:20;;;;;;;;;;;;;;;;;;2210588;59;1921;-18
2024/04/06 03:19:50;;;;;;;;;;;;;;;;;;2209719;59;2292;-18
2024/04/06 03:22:20;;;;;;;;;;;;;;;;;;2210533;59;2095;-18
2024/04/06 03:24:58;;;;;;;;;;;;;;;;;;2209865;59;1832;-18
2024/04/06 03:27:29;;;;;;;;;;;;;;;;;;2209961;59;1644;-18
2024/04/06 03:30:00;;;;;;;;;;;;;;;;;;2208193;59;1559;-17
2024/04/06 03:32:30;;;;;;;;;;;;;;;;;;2210098;67;1445;-17
2024/04/06 03:35:00;;;;;;;;;;;;;;;;;;2209158;67;1921;-17
2024/04/06 03:37:31;;;;;;;;;;;;;;;;;;2209478;59;1935;-17
2024/04/06 03:40:05;;;;;;;;;;;;;;;;;;2210415;59;1799;-17
2024/04/06 03:42:35;;;;;;;;;;;;;;;;;;2210503;67;1308;-18
2024/04/06 03:45:06;;;;;;;;;;;;;;;;;;2209902;59;1404;-17
2024/04/06 03:47:37;;;;;;;;;;;;;;;;;;2211097;67;1554;-17
2024/04/06 03:50:07;;;;;;;;;;;;;;;;;;2211598;66;1452;-18
2024/04/06 03:52:38;;;;;;;;;;;;;;;;;;2211300;67;1220;-17
2024/04/06 03:55:08;;;;;;;;;;;;;;;;;;2209637;67;1717;-21
2024/04/06 03:57:38;;;;;;;;;;;;;;;;;;2210173;66;1976;-17
2024/04/06 04:00:10;;;;;;;;;;;;;;;;;;2210451;59;2048;-19
2024/04/06 04:02:40;;;;;;;;;;;;;;;;;;2210328;67;1661;-18
2024/04/06 04:05:11;;;;;;;;;;;;;;;;;;2209876;59;1111;-17
2024/04/06 04:07:41;;;;;;;;;;;;;;;;;;2210246;67;1347;-17
2024/04/06 04:10:11;;;;;;;;;;;;;;;;;;2210673;67;1340;-17
2024/04/06 04:12:42;;;;;;;;;;;;;;;;;;2211556;59;1854;-18
2024/04/06 04:15:12;;;;;;;;;;;;;;;;;;2209123;59;1554;-17
2024/04/06 04:17:42;;;;;;;;;;;;;;;;;;2209517;67;1916;-17
2024/04/06 04:20:13;;;;;;;;;;;;;;;;;;2210196;59;1535;-17
2024/04/06 04:22:43;;;;;;;;;;;;;;;;;;2211288;59;1317;-17
2024/04/06 04:25:14;;;;;;;;;;;;;;;;;;2210029;67;1366;-17
2024/04/06 04:27:45;;;;;;;;;;;;;;;;;;2210060;67;1541;-17
2024/04/06 04:30:15;;;;;;;;;;;;;;;;;;2209010;59;1918;-18
2024/04/06 04:32:46;;;;;;;;;;;;;;;;;;2210318;67;1146;-17
2024/04/06 04:35:16;;;;;;;;;;;;;;;;;;2209421;59;1701;-17
2024/04/06 04:37:46;;;;;;;;;;;;;;;;;;2209364;59;2003;-17
2024/04/06 04:40:17;;;;;;;;;;;;;;;;;;2209494;59;1810;-17
2024/04/06 04:42:47;;;;;;;;;;;;;;;;;;2210022;67;1296;-18
2024/04/06 04:45:18;;;;;;;;;;;;;;;;;;2210407;59;1635;-18
2024/04/06 04:47:48;;;;;;;;;;;;;;;;;;2209175;67;1379;-18
2024/04/06 04:50:18;;;;;;;;;;;;;;;;;;2209777;67;1471;-17
2024/04/06 04:52:50;;;;;;;;;;;;;;;;;;2209181;67;1509;-17
2024/04/06 04:55:20;;;;;;;;;;;;;;;;;;2208894;67;1257;-18
2024/04/06 04:57:50;;;;;;;;;;;;;;;;;;2211410;66;1916;-17
2024/04/06 05:00:21;;;;;;;;;;;;;;;;;;2209842;59;1748;-17
2024/04/06 05:02:51;;;;;;;;;;;;;;;;;;2209148;59;1361;-17
2024/04/06 05:05:21;;;;;;;;;;;;;;;;;;2210533;66;1279;-17
2024/04/06 05:07:52;;;;;;;;;;;;;;;;;;2211442;66;1389;-18
2024/04/06 05:10:22;;;;;;;;;;;;;;;;;;2210792;67;1613;-18
2024/04/06 05:12:52;;;;;;;;;;;;;;;;;;2209574;59;1737;-17
2024/04/06 05:15:22;;;;;;;;;;;;;;;;;;2209834;59;1299;-18
2024/04/06 05:17:53;;;;;;;;;;;;;;;;;;2208932;67;1990;-18
2024/04/06 05:20:23;;;;;;;;;;;;;;;;;;2210577;59;1692;-18
2024/04/06 05:22:53;;;;;;;;;;;;;;;;;;2209286;59;1372;-17
2024/04/06 05:25:23;;;;;;;;;;;;;;;;;;2210153;67;1693;-18
2024/04/06 05:27:54;;;;;;;;;;;;;;;;;;2209648;67;1616;-17
2024/04/06 05:30:24;;;;;;;;;;;;;;;;;;2207382;67;1809;-18
2024/04/06 05:32:54;;;;;;;;;;;;;;;;;;2209315;67;1414;-18
2024/04/06 05:35:24;;;;;;;;;;;;;;;;;;2209181;59;1907;-17
2024/04/06 05:37:55;;;;;;;;;;;;;;;;;;2208105;59;1947;-17
2024/04/06 05:40:25;;;;;;;;;;;;;;;;;;2210882;59;1716;-17
2024/04/06 05:42:55;;;;;;;;;;;;;;;;;;2209633;67;1598;-18
2024/04/06 05:45:26;;;;;;;;;;;;;;;;;;2210500;59;1364;-18
2024/04/06 05:48:01;;;;;;;;;;;;;;;;;;2209097;67;1317;-18
2024/04/06 05:50:32;;;;;;;;;;;;;;;;;;2210576;66;1676;-18
2024/04/06 05:53:04;;;;;;;;;;;;;;;;;;2209557;67;1371;-17
2024/04/06 05:55:34;;;;;;;;;;;;;;;;;;2209780;58;2385;-17
2024/04/06 05:58:04;;;;;;;;;;;;;;;;;;2209880;59;1915;-17
2024/04/06 06:00:35;;;;;;;;;;;;;;;;;;2210504;59;2000;-17
2024/04/06 06:03:05;;;;;;;;;;;;;;;;;;2208415;67;1532;-17
2024/04/06 06:05:35;;;;;;;;;;;;;;;;;;2209310;67;1415;-18
2024/04/06 06:08:06;;;;;;;;;;;;;;;;;;2208638;67;1511;-18
2024/04/06 06:10:36;;;;;;;;;;;;;;;;;;2208708;59;1526;-18
2024/04/06 06:13:06;;;;;;;;;;;;;;;;;;2209597;59;1702;-18
2024/04/06 06:15:37;;;;;;;;;;;;;;;;;;2209932;59;1400;-18
2024/04/06 06:18:07;;;;;;;;;;;;;;;;;;2208857;67;2049;-18
2024/04/06 06:20:38;;;;;;;;;;;;;;;;;;2210542;59;2040;-18
2024/04/06 06:23:09;;;;;;;;;;;;;;;;;;2209275;67;1745;-18
2024/04/06 06:25:39;;;;;;;;;;;;;;;;;;2209743;67;1484;-18
2024/04/06 06:28:09;;;;;;;;;;;;;;;;;;2208937;66;1610;-18
2024/04/06 06:30:43;;;;;;;;;;;;;;;;;;2210385;67;1528;-18
2024/04/06 06:33:13;;;;;;;;;;;;;;;;;;2208623;59;1838;-18
2024/04/06 06:35:50;;;;;;;;;;;;;;;;;;2207813;59;2495;-18
2024/04/06 06:38:23;;;;;;;;;;;;;;;;;;2207182;59;2609;-18
2024/04/06 06:40:54;;;;;;;;;;;;;;;;;;2207846;59;2439;-18
2024/04/06 06:43:24;;;;;;;;;;;;;;;;;;2206260;59;2371;-18
2024/04/06 06:45:55;;;;;;;;;;;;;;;;;;2208922;67;2489;-18
2024/04/06 06:48:26;;;;;;;;;;;;;;;;;;2207934;59;2278;-18
2024/04/06 06:50:57;;;;;;;;;;;;;;;;;;2207849;59;2221;-18
2024/04/06 06:53:27;;;;;;;;;;;;;;;;;;2207923;59;2316;-18
2024/04/06 06:55:57;;;;;;;;;;;;;;;;;;2206668;67;2383;-18
2024/04/06 06:58:28;;;;;;;;;;;;;;;;;;2208235;59;2149;-18
2024/04/06 07:00:58;;;;;;;;;;;;;;;;;;2207124;59;2108;-18
2024/04/06 07:03:28;;;;;;;;;;;;;;;;;;2206580;59;1529;-18
2024/04/06 07:05:59;;;;;;;;;;;;;;;;;;2208094;67;1647;-18
2024/04/06 07:08:31;;;;;;;;;;;;;;;;;;2208899;67;2326;-18
2024/04/06 07:11:02;;;;;;;;;;;;;;;;;;2207357;59;2327;-18
2024/04/06 07:13:32;;;;;;;;;;;;;;;;;;2208804;59;2739;-19
2024/04/06 07:16:09;;;;;;;;;;;;;;;;;;2205807;67;1941;-18
2024/04/06 07:18:40;;;;;;;;;;;;;;;;;;2207055;67;1329;-19
2024/04/06 07:21:11;;;;;;;;;;;;;;;;;;2208630;59;1859;-19
2024/04/06 07:23:41;;;;;;;;;;;;;;;;;;2207875;59;1508;-19
2024/04/06 07:26:12;;;;;;;;;;;;;;;;;;2207786;67;1714;-19
2024/04/06 07:28:42;;;;;;;;;;;;;;;;;;2207547;59;1601;-18
2024/04/06 07:31:12;;;;;;;;;;;;;;;;;;2206675;67;1894;-19
2024/04/06 07:33:43;;;;;;;;;;;;;;;;;;2206895;59;1726;-19
2024/04/06 07:36:13;;;;;;;;;;;;;;;;;;2206165;67;1996;-19
2024/04/06 07:38:43;;;;;;;;;;;;;;;;;;2207969;67;1673;-19
2024/04/06 07:41:13;;;;;;;;;;;;;;;;;;2207192;59;1704;-19
2024/04/06 07:43:44;;;;;;;;;;;;;;;;;;2207788;67;1757;-19
2024/04/06 07:46:14;;;;;;;;;;;;;;;;;;2207201;59;1738;-19
2024/04/06 07:48:44;;;;;;;;;;;;;;;;;;2210212;66;1590;-20
2024/04/06 07:51:15;;;;;;;;;;;;;;;;;;2205545;59;2863;-19
2024/04/06 07:53:45;;;;;;;;;;;;;;;;;;2207565;59;1671;-19
2024/04/06 07:56:16;;;;;;;;;;;;;;;;;;2206231;66;1956;-19
2024/04/06 07:58:46;;;;;;;;;;;;;;;;;;2207886;66;2054;-19
2024/04/06 08:01:16;;;;;;;;;;;;;;;;;;2206685;67;1365;-19
2024/04/06 08:03:47;;;;;;;;;;;;;;;;;;2206938;59;2252;-19
2024/04/06 08:06:18;;;;;;;;;;;;;;;;;;2206741;66;1766;-19
2024/04/06 08:08:48;;;;;;;;;;;;;;;;;;2208488;67;2190;-19
2024/04/06 08:11:18;;;;;;;;;;;;;;;;;;2206135;59;1939;-19
2024/04/06 08:13:49;;;;;;;;;;;;;;;;;;2207363;59;1956;-19
2024/04/06 08:16:19;;;;;;;;;;;;;;;;;;2206002;67;1983;-19
2024/04/06 08:18:49;;;;;;;;;;;;;;;;;;2208379;67;2007;-19
2024/04/06 08:21:19;;;;;;;;;;;;;;;;;;2206146;67;2048;-19
2024/04/06 08:23:50;;;;;;;;;;;;;;;;;;2206599;59;1808;-19
2024/04/06 08:26:20;;;;;;;;;;;;;;;;;;2206139;67;1892;-19
2024/04/06 08:28:52;;;;;;;;;;;;;;;;;;2207966;67;1572;-19
2024/04/06 08:31:22;;;;;;;;;;;;;;;;;;2205098;59;2779;-19
2024/04/06 08:33:52;;;;;;;;;;;;;;;;;;2207640;59;1782;-19
2024/04/06 08:36:22;;;;;;;;;;;;;;;;;;2206450;59;1941;-19
2024/04/06 08:38:54;;;;;;;;;;;;;;;;;;2206646;59;1998;-19
2024/04/06 08:41:24;;;;;;;;;;;;;;;;;;2206536;59;2209;-19
2024/04/06 08:43:55;;;;;;;;;;;;;;;;;;2206277;67;1474;-19
2024/04/06 08:46:25;;;;;;;;;;;;;;;;;;2206392;59;1678;-19
2024/04/06 08:48:55;;;;;;;;;;;;;;;;;;2206424;66;1488;-19
2024/04/06 08:51:29;;;;;;;;;;;;;;;;;;2206664;67;1632;-19
2024/04/06 08:53:59;;;;;;;;;;;;;;;;;;2205546;67;1561;-19
2024/04/06 08:56:29;;;;;;;;;;;;;;;;;;2205721;67;2001;-19
2024/04/06 08:59:03;;;;;;;;;;;;;;;;;;2207494;59;1673;-19
2024/04/06 09:01:33;;;;;;;;;;;;;;;;;;2206596;67;1520;-19
2024/04/06 09:04:04;;;;;;;;;;;;;;;;;;2207268;59;1944;-19
2024/04/06 09:06:34;;;;;;;;;;;;;;;;;;2205314;59;3547;-19
2024/04/06 09:09:06;;;;;;;;;;;;;;;;;;2206252;59;2612;-19
2024/04/06 09:11:40;;;;;;;;;;;;;;;;;;2206536;59;2202;-19
2024/04/06 09:14:11;;;;;;;;;;;;;;;;;;2209520;58;1494;-19
2024/04/06 09:16:42;;;;;;;;;;;;;;;;;;2205995;67;1951;-19
2024/04/06 09:19:12;;;;;;;;;;;;;;;;;;2205859;59;1809;-19
2024/04/06 09:21:43;;;;;;;;;;;;;;;;;;2204815;67;1927;-19
2024/04/06 09:24:13;;;;;;;;;;;;;;;;;;2206243;59;1678;-19
2024/04/06 09:26:45;;;;;;;;;;;;;;;;;;2204796;67;1631;-20
2024/04/06 09:29:16;;;;;;;;;;;;;;;;;;2204997;66;2201;-19
2024/04/06 09:31:47;;;;;;;;;;;;;;;;;;2206729;58;1809;-19
2024/04/06 09:34:17;;;;;;;;;;;;;;;;;;2205601;59;2222;-19
2024/04/06 09:36:50;;;;;;;;;;;;;;;;;;2204205;59;1998;-19
2024/04/06 09:39:21;;;;;;;;;;;;;;;;;;2206701;59;1724;-19
2024/04/06 09:41:52;;;;;;;;;;;;;;;;;;2207400;59;1920;-19
2024/04/06 09:44:23;;;;;;;;;;;;;;;;;;2203971;67;2460;-19
2024/04/06 09:46:53;;;;;;;;;;;;;;;;;;2201987;59;2727;-20
2024/04/06 09:49:24;;;;;;;;;;;;;;;;;;2206673;59;1437;-19
2024/04/06 09:51:54;;;;;;;;;;;;;;;;;;2207114;59;2112;-19
2024/04/06 09:54:24;;;;;;;;;;;;;;;;;;2205703;66;1307;-19
2024/04/06 09:56:54;;;;;;;;;;;;;;;;;;2206705;67;1994;-19
2024/04/06 09:59:28;;;;;;;;;;;;;;;;;;2206247;59;1761;-19
2024/04/06 10:01:58;;;;;;;;;;;;;;;;;;2206427;67;1351;-19
2024/04/06 10:04:34;;;;;;;;;;;;;;;;;;2205431;67;1640;-19
2024/04/06 10:07:05;;;;;;;;;;;;;;;;;;2205957;59;1629;-19
2024/04/06 10:09:35;;;;;;;;;;;;;;;;;;2206254;67;1258;-19
2024/04/06 10:12:06;;;;;;;;;;;;;;;;;;2204109;59;1427;-19
2024/04/06 10:14:43;;;;;;;;;;;;;;;;;;2206999;59;1960;-19
2024/04/06 10:17:14;;;;;;;;;;;;;;;;;;2203179;67;1936;-19
2024/04/06 10:19:45;;;;;;;;;;;;;;;;;;2206546;59;2218;-19
2024/04/06 10:22:23;;;;;;;;;;;;;;;;;;2207179;59;1554;-19
2024/04/06 10:25:00;;;;;;;;;;;;;;;;;;2207117;59;1443;-19
2024/04/06 10:27:36;;;;;;;;;;;;;;;;;;2206005;59;1227;-19
2024/04/06 10:30:07;;;;;;;;;;;;;;;;;;2202393;59;2117;-19
2024/04/06 10:32:38;;;;;;;;;;;;;;;;;;2206462;67;1522;-20
2024/04/06 10:35:08;;;;;;;;;;;;;;;;;;2207688;59;1751;-19
2024/04/06 10:37:38;;;;;;;;;;;;;;;;;;2206151;59;1935;-19
2024/04/06 10:40:09;;;;;;;;;;;;;;;;;;2207262;58;1805;-19
2024/04/06 10:42:40;;;;;;;;;;;;;;;;;;2205160;67;1908;-19
2024/04/06 10:45:11;;;;;;;;;;;;;;;;;;2206928;59;1847;-19
2024/04/06 10:47:42;;;;;;;;;;;;;;;;;;2206711;67;1817;-19
2024/04/06 10:50:13;;;;;;;;;;;;;;;;;;2205495;66;1340;-20
2024/04/06 10:52:43;;;;;;;;;;;;;;;;;;2206065;59;2132;-21
2024/04/06 10:55:20;;;;;;;;;;;;;;;;;;2203372;67;2035;-22
2024/04/06 10:57:51;;;;;;;;;;;;;;;;;;2206251;67;1940;-21
2024/04/06 11:00:21;;;;;;;;;;;;;;;;;;2205018;67;1280;-21
2024/04/06 11:02:51;;;;;;;;;;;;;;;;;;2205933;67;1666;-21
2024/04/06 11:05:22;;;;;;;;;;;;;;;;;;2204987;67;1565;-21
2024/04/06 11:07:52;;;;;;;;;;;;;;;;;;2204209;67;1301;-22
2024/04/06 11:10:22;;;;;;;;;;;;;;;;;;2205909;67;2062;-22
2024/04/06 11:12:52;;;;;;;;;;;;;;;;;;2206809;59;1491;-21
2024/04/06 11:15:23;;;;;;;;;;;;;;;;;;2205271;59;1590;-22
2024/04/06 11:17:54;;;;;;;;;;;;;;;;;;2206499;67;1992;-21
2024/04/06 11:20:25;;;;;;;;;;;;;;;;;;2206814;59;1596;-22
2024/04/06 11:22:56;;;;;;;;;;;;;;;;;;2205594;59;2185;-22
2024/04/06 11:25:26;;;;;;;;;;;;;;;;;;2205598;59;1331;-21
2024/04/06 11:27:56;;;;;;;;;;;;;;;;;;2205225;59;1252;-22
2024/04/06 11:30:28;;;;;;;;;;;;;;;;;;2206579;67;1538;-22
2024/04/06 11:32:58;;;;;;;;;;;;;;;;;;2207365;59;1655;-21
2024/04/06 11:35:30;;;;;;;;;;;;;;;;;;2206864;59;1861;-21
2024/04/06 11:38:00;;;;;;;;;;;;;;;;;;2207086;59;1935;-21
2024/04/06 11:40:30;;;;;;;;;;;;;;;;;;2206589;59;1856;-22
2024/04/06 11:43:01;;;;;;;;;;;;;;;;;;2207615;67;1181;-22
2024/04/06 11:45:31;;;;;;;;;;;;;;;;;;2207051;59;2009;-21
2024/04/06 11:48:01;;;;;;;;;;;;;;;;;;2207811;67;1271;-21
2024/04/06 11:50:31;;;;;;;;;;;;;;;;;;2207058;67;1276;-21
2024/04/06 11:53:02;;;;;;;;;;;;;;;;;;2209694;53;3308;-20
2024/04/06 11:55:33;;;;;;;;;;;;;;;;;;2208540;66;2362;-21
2024/04/06 11:58:03;;;;;;;;;;;;;;;;;;2211798;58;3423;-20
2024/04/06 12:00:34;;;;;;;;;;;;;;;;;;2209895;58;2001;-20
2024/04/06 12:03:04;;;;;;;;;;;;;;;;;;2208973;66;2915;-20
2024/04/06 12:05:34;;;;;;;;;;;;;;;;;;2211923;58;1940;-20
2024/04/06 12:08:07;;;;;;;;;;;;;;;;;;2212756;66;2007;-20
2024/04/06 12:10:37;;;;;;;;;;;;;;;;;;2209047;66;1806;-20
2024/04/06 12:13:08;;;;;;;;;;;;;;;;;;2210247;66;1992;-20
2024/04/06 12:15:40;;;;;;;;;;;;;;;;;;2212016;58;1937;-20
2024/04/06 12:18:11;;;;;;;;;;;;;;;;;;2209826;59;2069;-20
2024/04/06 12:20:41;;;;;;;;;;;;;;;;;;2212245;58;1896;-21
2024/04/06 12:23:12;;;;;;;;;;;;;;;;;;2212584;66;3145;-20
2024/04/06 12:25:42;;;;;;;;;;;;;;;;;;2211710;66;1931;-21
2024/04/06 12:28:12;;;;;;;;;;;;;;;;;;2212813;66;2066;-20
2024/04/06 12:30:43;;;;;;;;;;;;;;;;;;2211417;58;2933;-21
2024/04/06 12:33:13;;;;;;;;;;;;;;;;;;2210020;58;1994;-21
2024/04/06 12:35:48;;;;;;;;;;;;;;;;;;2210546;66;2250;-21
2024/04/06 12:38:18;;;;;;;;;;;;;;;;;;2211319;58;2782;-21
2024/04/06 12:40:48;;;;;;;;;;;;;;;;;;2209435;59;2168;-21
2024/04/06 12:43:19;;;;;;;;;;;;;;;;;;2208769;66;2277;-21
2024/04/06 12:45:50;;;;;;;;;;;;;;;;;;2209328;59;2725;-20
2024/04/06 12:48:20;;;;;;;;;;;;;;;;;;2208250;66;2702;-21
2024/04/06 12:50:50;;;;;;;;;;;;;;;;;;2209169;66;2004;-20
2024/04/06 12:53:21;;;;;;;;;;;;;;;;;;2206778;59;2085;-20
2024/04/06 12:55:51;;;;;;;;;;;;;;;;;;2213306;66;1943;-20
2024/04/06 12:58:22;;;;;;;;;;;;;;;;;;2208538;59;1942;-20
2024/04/06 13:00:53;;;;;;;;;;;;;;;;;;2212286;58;2004;-20
2024/04/06 13:03:23;;;;;;;;;;;;;;;;;;2210974;66;2540;-20
2024/04/06 13:05:53;;;;;;;;;;;;;;;;;;2210076;59;2770;-20
2024/04/06 13:08:25;;;;;;;;;;;;;;;;;;2210822;66;2126;-20
2024/04/06 13:10:55;;;;;;;;;;;;;;;;;;2208051;66;2127;-20
2024/04/06 13:13:25;;;;;;;;;;;;;;;;;;2208816;58;2226;-20
2024/04/06 13:15:56;;;;;;;;;;;;;;;;;;2208550;66;2079;-20
2024/04/06 13:18:26;;;;;;;;;;;;;;;;;;2207600;66;1941;-21
2024/04/06 13:20:56;;;;;;;;;;;;;;;;;;2210501;58;2678;-20
2024/04/06 13:23:27;;;;;;;;;;;;;;;;;;2209974;58;2480;-20
2024/04/06 13:25:57;;;;;;;;;;;;;;;;;;2206023;59;2168;-20
2024/04/06 13:28:28;;;;;;;;;;;;;;;;;;2206545;59;2629;-20
2024/04/06 13:30:58;;;;;;;;;;;;;;;;;;2210131;66;2519;-20
2024/04/06 13:33:28;;;;;;;;;;;;;;;;;;2209909;58;2330;-20
2024/04/06 13:36:01;;;;;;;;;;;;;;;;;;2211827;58;2209;-20
2024/04/06 13:38:31;;;;;;;;;;;;;;;;;;2210637;59;2499;-20
2024/04/06 13:41:02;;;;;;;;;;;;;;;;;;2212942;58;2474;-21
2024/04/06 13:43:32;;;;;;;;;;;;;;;;;;2208052;59;2495;-21
2024/04/06 13:46:03;;;;;;;;;;;;;;;;;;2212485;58;2419;-20
2024/04/06 13:48:34;;;;;;;;;;;;;;;;;;2210917;59;2137;-20
2024/04/06 13:51:05;;;;;;;;;;;;;;;;;;2211941;58;2364;-20
2024/04/06 13:53:35;;;;;;;;;;;;;;;;;;2209995;59;2743;-20
2024/04/06 13:56:05;;;;;;;;;;;;;;;;;;2212406;59;2596;-20
2024/04/06 13:58:36;;;;;;;;;;;;;;;;;;2210977;58;2121;-21
2024/04/06 14:01:06;;;;;;;;;;;;;;;;;;2212630;58;2651;-20
2024/04/06 14:03:37;;;;;;;;;;;;;;;;;;2205618;59;1989;-20
2024/04/06 14:06:08;;;;;;;;;;;;;;;;;;2210173;66;2212;-20
2024/04/06 14:08:39;;;;;;;;;;;;;;;;;;2205637;66;2152;-20
2024/04/06 14:11:10;;;;;;;;;;;;;;;;;;2211970;66;1853;-21
2024/04/06 14:13:41;;;;;;;;;;;;;;;;;;2211757;58;2396;-20
2024/04/06 14:16:12;;;;;;;;;;;;;;;;;;2211210;66;2544;-20
2024/04/06 14:18:42;;;;;;;;;;;;;;;;;;2210498;66;2246;-20
2024/04/06 14:21:12;;;;;;;;;;;;;;;;;;2211979;58;2615;-20
2024/04/06 14:23:43;;;;;;;;;;;;;;;;;;2206232;59;2100;-20
2024/04/06 14:26:14;;;;;;;;;;;;;;;;;;2211944;66;1976;-20
2024/04/06 14:28:44;;;;;;;;;;;;;;;;;;2210768;66;2282;-20
2024/04/06 14:31:14;;;;;;;;;;;;;;;;;;2211866;66;2323;-20
2024/04/06 14:33:44;;;;;;;;;;;;;;;;;;2211403;59;2679;-20
2024/04/06 14:36:15;;;;;;;;;;;;;;;;;;2212141;66;2423;-20
2024/04/06 14:38:45;;;;;;;;;;;;;;;;;;2209326;59;2898;-20
2024/04/06 14:41:15;;;;;;;;;;;;;;;;;;2212606;58;2095;-20
2024/04/06 14:43:46;;;;;;;;;;;;;;;;;;2211788;66;3056;-21
2024/04/06 14:46:16;;;;;;;;;;;;;;;;;;2211631;58;2740;-20
2024/04/06 14:48:47;;;;;;;;;;;;;;;;;;2211766;66;3550;-20
2024/04/06 14:51:17;;;;;;;;;;;;;;;;;;2211390;66;2493;-18
2024/04/06 14:53:47;;;;;;;;;;;;;;;;;;2211815;58;1864;-18
2024/04/06 14:56:18;;;;;;;;;;;;;;;;;;2211496;66;2402;-18
2024/04/06 14:58:48;;;;;;;;;;;;;;;;;;2208662;58;2439;-18
2024/04/06 15:01:19;;;;;;;;;;;;;;;;;;2209187;66;1827;-18
2024/04/06 15:03:49;;;;;;;;;;;;;;;;;;2209138;66;2388;-18
2024/04/06 15:06:19;;;;;;;;;;;;;;;;;;2209315;59;2520;-18
2024/04/06 15:08:50;;;;;;;;;;;;;;;;;;2211202;59;2519;-18
2024/04/06 15:11:20;;;;;;;;;;;;;;;;;;2209338;59;1893;-18
2024/04/06 15:13:50;;;;;;;;;;;;;;;;;;2205903;66;1781;-18
2024/04/06 15:16:21;;;;;;;;;;;;;;;;;;2208020;66;2329;-18
2024/04/06 15:18:51;;;;;;;;;;;;;;;;;;2208753;66;2318;-18
2024/04/06 15:21:22;;;;;;;;;;;;;;;;;;2210598;58;2617;-18
2024/04/06 15:23:52;;;;;;;;;;;;;;;;;;2209297;59;1869;-18
2024/04/06 15:26:22;;;;;;;;;;;;;;;;;;2212377;58;1572;-18
2024/04/06 15:28:53;;;;;;;;;;;;;;;;;;2207564;66;1636;-18
2024/04/06 15:31:23;;;;;;;;;;;;;;;;;;2212010;58;2053;-18
2024/04/06 15:33:53;;;;;;;;;;;;;;;;;;2210837;59;1924;-18
2024/04/06 15:36:24;;;;;;;;;;;;;;;;;;2211398;58;1941;-18
2024/04/06 15:38:55;;;;;;;;;;;;;;;;;;2210377;58;1815;-18
2024/04/06 15:41:31;;;;;;;;;;;;;;;;;;2211737;58;2000;-18
2024/04/06 15:44:01;;;;;;;;;;;;;;;;;;2211934;66;1881;-18
2024/04/06 15:46:31;;;;;;;;;;;;;;;;;;2211027;58;1593;-18
2024/04/06 15:49:02;;;;;;;;;;;;;;;;;;2211516;66;1508;-18
2024/04/06 15:51:34;;;;;;;;;;;;;;;;;;2210638;58;1587;-18
2024/04/06 15:54:04;;;;;;;;;;;;;;;;;;2211815;66;1539;-18
2024/04/06 15:56:35;;;;;;;;;;;;;;;;;;2210640;66;1992;-18
2024/04/06 15:59:09;;;;;;;;;;;;;;;;;;2210888;59;2635;-18
2024/04/06 16:01:40;;;;;;;;;;;;;;;;;;2211040;66;1830;-18
2024/04/06 16:04:11;;;;;;;;;;;;;;;;;;2212061;58;1316;-18
2024/04/06 16:06:42;;;;;;;;;;;;;;;;;;2208421;66;1642;-18
2024/04/06 16:09:12;;;;;;;;;;;;;;;;;;2208067;66;1457;-18
2024/04/06 16:11:42;;;;;;;;;;;;;;;;;;2207146;59;1726;-18
2024/04/06 16:14:13;;;;;;;;;;;;;;;;;;2208487;59;1665;-18
2024/04/06 16:16:43;;;;;;;;;;;;;;;;;;2212077;66;1931;-18
2024/04/06 16:19:13;;;;;;;;;;;;;;;;;;2212568;59;1586;-18
2024/04/06 16:21:44;;;;;;;;;;;;;;;;;;2211889;66;1714;-18
2024/04/06 16:24:14;;;;;;;;;;;;;;;;;;2212890;66;1571;-18
2024/04/06 16:26:44;;;;;;;;;;;;;;;;;;2208014;66;2782;-18
2024/04/06 16:29:15;;;;;;;;;;;;;;;;;;2212779;66;1628;-18
2024/04/06 16:31:45;;;;;;;;;;;;;;;;;;2212073;66;1576;-18
2024/04/06 16:34:15;;;;;;;;;;;;;;;;;;2212440;59;1807;-18
2024/04/06 16:36:46;;;;;;;;;;;;;;;;;;2211867;58;1905;-18
2024/04/06 16:39:16;;;;;;;;;;;;;;;;;;2209546;58;2037;-18
2024/04/06 16:41:46;;;;;;;;;;;;;;;;;;2212207;59;1238;-18
2024/04/06 16:44:18;;;;;;;;;;;;;;;;;;2209745;66;1564;-18
2024/04/06 16:46:49;;;;;;;;;;;;;;;;;;2211761;59;1578;-18
2024/04/06 16:49:19;;;;;;;;;;;;;;;;;;2209323;66;1744;-18
2024/04/06 16:51:50;;;;;;;;;;;;;;;;;;2211741;58;1543;-18
2024/04/06 16:54:21;;;;;;;;;;;;;;;;;;2213763;66;1541;-18
2024/04/06 16:56:51;;;;;;;;;;;;;;;;;;2212164;66;2032;-18
2024/04/06 16:59:21;;;;;;;;;;;;;;;;;;2209470;66;1834;-18
2024/04/06 17:01:52;;;;;;;;;;;;;;;;;;2212465;66;1735;-18
2024/04/06 17:04:22;;;;;;;;;;;;;;;;;;2209627;58;2519;-18
2024/04/06 17:06:53;;;;;;;;;;;;;;;;;;2208792;59;2173;-18
2024/04/06 17:09:23;;;;;;;;;;;;;;;;;;2212003;58;2477;-18
2024/04/06 17:11:53;;;;;;;;;;;;;;;;;;2212025;59;2430;-18
2024/04/06 17:14:24;;;;;;;;;;;;;;;;;;2213169;58;2533;-18
2024/04/06 17:16:54;;;;;;;;;;;;;;;;;;2210666;59;2510;-18
2024/04/06 17:19:25;;;;;;;;;;;;;;;;;;2213104;58;2252;-18
2024/04/06 17:21:55;;;;;;;;;;;;;;;;;;2206222;59;2267;-18
2024/04/06 17:24:25;;;;;;;;;;;;;;;;;;2213778;58;2282;-18
2024/04/06 17:26:56;;;;;;;;;;;;;;;;;;2211450;59;2336;-18